sensor_id;sensor_type;location;lat;lon;timestamp;temperature;humidity
3626;DHT22;1827;50.534;8.316;2023-05-10T00:01:47;12.90;99.90
3626;DHT22;1827;50.534;8.316;2023-05-10T00:04:12;12.90;99.90
3626;DHT22;1827;50.534;8.316;2023-05-10T00:06:38;12.80;1.00
3626;DHT22;1827;50.534;8.316;2023-05-10T00:09:03;12.80;1.00
3626;DHT22;1827;50.534;8.316;2023-05-10T00:11:29;12.80;99.90
3626;DHT22;1827;50.534;8.316;2023-05-10T00:13:56;12.90;99.90
3626;DHT22;1827;50.534;8.316;2023-05-10T00:16:21;12.90;1.00
3626;DHT22;1827;50.534;8.316;2023-05-10T00:18:47;12.90;1.00
3626;DHT22;1827;50.534;8.316;2023-05-10T00:21:13;12.80;1.00
3626;DHT22;1827;50.534;8.316;2023-05-10T00:23:38;12.80;99.90
3626;DHT22;1827;50.534;8.316;2023-05-10T00:26:04;12.70;99.90
3626;DHT22;1827;50.534;8.316;2023-05-10T00:28:29;12.80;86.90
3626;DHT22;1827;50.534;8.316;2023-05-10T00:30:55;12.80;1.00
3626;DHT22;1827;50.534;8.316;2023-05-10T00:33:21;12.70;1.00
3626;DHT22;1827;50.534;8.316;2023-05-10T00:35:48;12.60;1.00
3626;DHT22;1827;50.534;8.316;2023-05-10T00:38:14;12.70;1.00
3626;DHT22;1827;50.534;8.316;2023-05-10T00:40:40;12.70;1.00
3626;DHT22;1827;50.534;8.316;2023-05-10T00:43:12;12.70;1.00
3626;DHT22;1827;50.534;8.316;2023-05-10T00:45:37;12.60;99.90
3626;DHT22;1827;50.534;8.316;2023-05-10T00:48:04;12.60;99.90
3626;DHT22;1827;50.534;8.316;2023-05-10T00:50:30;12.60;99.90
3626;DHT22;1827;50.534;8.316;2023-05-10T00:52:57;12.60;99.90
3626;DHT22;1827;50.534;8.316;2023-05-10T00:55:24;12.60;99.90
3626;DHT22;1827;50.534;8.316;2023-05-10T00:57:49;12.60;99.90
3626;DHT22;1827;50.534;8.316;2023-05-10T01:00:15;12.50;99.90
3626;DHT22;1827;50.534;8.316;2023-05-10T01:02:46;12.60;99.90
3626;DHT22;1827;50.534;8.316;2023-05-10T01:05:12;12.50;99.90
3626;DHT22;1827;50.534;8.316;2023-05-10T01:07:38;12.50;99.90
3626;DHT22;1827;50.534;8.316;2023-05-10T01:10:04;12.50;99.90
3626;DHT22;1827;50.534;8.316;2023-05-10T01:12:30;12.50;99.90
3626;DHT22;1827;50.534;8.316;2023-05-10T01:14:55;12.40;25.20
3626;DHT22;1827;50.534;8.316;2023-05-10T01:17:21;12.30;1.00
3626;DHT22;1827;50.534;8.316;2023-05-10T01:19:47;12.30;1.00
3626;DHT22;1827;50.534;8.316;2023-05-10T01:32:14;12.40;99.90
3626;DHT22;1827;50.534;8.316;2023-05-10T01:37:39;12.40;1.00
3626;DHT22;1827;50.534;8.316;2023-05-10T01:40:08;12.30;1.00
3626;DHT22;1827;50.534;8.316;2023-05-10T01:42:43;12.30;1.00
3626;DHT22;1827;50.534;8.316;2023-05-10T01:45:14;12.30;1.00
3626;DHT22;1827;50.534;8.316;2023-05-10T01:47:42;12.30;1.00
3626;DHT22;1827;50.534;8.316;2023-05-10T01:50:27;12.30;1.00
3626;DHT22;1827;50.534;8.316;2023-05-10T01:52:54;12.30;1.00
3626;DHT22;1827;50.534;8.316;2023-05-10T01:55:20;12.20;1.00
3626;DHT22;1827;50.534;8.316;2023-05-10T01:57:46;12.20;1.00
3626;DHT22;1827;50.534;8.316;2023-05-10T02:00:13;12.20;1.00
3626;DHT22;1827;50.534;8.316;2023-05-10T02:02:44;12.20;1.00
3626;DHT22;1827;50.534;8.316;2023-05-10T02:05:11;12.20;1.00
3626;DHT22;1827;50.534;8.316;2023-05-10T02:07:38;12.30;90.50
3626;DHT22;1827;50.534;8.316;2023-05-10T02:10:04;12.20;18.50
3626;DHT22;1827;50.534;8.316;2023-05-10T02:12:31;12.30;75.00
3626;DHT22;1827;50.534;8.316;2023-05-10T02:14:57;12.30;1.00
3626;DHT22;1827;50.534;8.316;2023-05-10T02:17:24;12.20;1.00
3626;DHT22;1827;50.534;8.316;2023-05-10T02:19:50;12.30;95.30
3626;DHT22;1827;50.534;8.316;2023-05-10T02:22:17;12.30;99.90
3626;DHT22;1827;50.534;8.316;2023-05-10T02:24:43;12.30;92.50
3626;DHT22;1827;50.534;8.316;2023-05-10T02:27:09;12.20;42.40
3626;DHT22;1827;50.534;8.316;2023-05-10T02:29:36;12.20;94.20
3626;DHT22;1827;50.534;8.316;2023-05-10T02:32:02;12.30;99.90
3626;DHT22;1827;50.534;8.316;2023-05-10T02:34:29;12.30;99.90
3626;DHT22;1827;50.534;8.316;2023-05-10T02:36:55;12.20;62.10
3626;DHT22;1827;50.534;8.316;2023-05-10T02:39:21;12.10;60.10
3626;DHT22;1827;50.534;8.316;2023-05-10T02:41:48;12.10;99.90
3626;DHT22;1827;50.534;8.316;2023-05-10T02:44:17;12.10;99.90
3626;DHT22;1827;50.534;8.316;2023-05-10T02:46:45;12.10;99.90
3626;DHT22;1827;50.534;8.316;2023-05-10T02:49:11;12.10;99.90
3626;DHT22;1827;50.534;8.316;2023-05-10T02:51:37;12.10;99.90
3626;DHT22;1827;50.534;8.316;2023-05-10T02:54:13;12.00;99.90
3626;DHT22;1827;50.534;8.316;2023-05-10T02:56:40;12.10;99.90
3626;DHT22;1827;50.534;8.316;2023-05-10T02:59:07;12.00;99.90
3626;DHT22;1827;50.534;8.316;2023-05-10T03:01:33;12.00;92.20
3626;DHT22;1827;50.534;8.316;2023-05-10T03:03:59;11.90;76.60
3626;DHT22;1827;50.534;8.316;2023-05-10T03:06:24;11.90;79.50
3626;DHT22;1827;50.534;8.316;2023-05-10T03:08:51;11.90;14.40
3626;DHT22;1827;50.534;8.316;2023-05-10T03:13:54;11.90;94.20
3626;DHT22;1827;50.534;8.316;2023-05-10T03:16:27;11.90;77.30
3626;DHT22;1827;50.534;8.316;2023-05-10T03:19:02;12.00;99.90
3626;DHT22;1827;50.534;8.316;2023-05-10T03:21:31;12.00;99.90
3626;DHT22;1827;50.534;8.316;2023-05-10T03:24:07;12.00;40.00
3626;DHT22;1827;50.534;8.316;2023-05-10T03:26:35;12.00;1.00
3626;DHT22;1827;50.534;8.316;2023-05-10T03:29:07;12.00;1.00
3626;DHT22;1827;50.534;8.316;2023-05-10T03:31:34;12.00;1.00
3626;DHT22;1827;50.534;8.316;2023-05-10T03:34:13;12.10;23.60
3626;DHT22;1827;50.534;8.316;2023-05-10T03:36:45;12.10;12.40
3626;DHT22;1827;50.534;8.316;2023-05-10T03:39:14;12.00;18.10
3626;DHT22;1827;50.534;8.316;2023-05-10T03:41:40;12.10;99.90
3626;DHT22;1827;50.534;8.316;2023-05-10T03:44:11;12.10;99.90
3626;DHT22;1827;50.534;8.316;2023-05-10T03:46:37;12.00;99.90
3626;DHT22;1827;50.534;8.316;2023-05-10T03:49:03;12.10;99.90
3626;DHT22;1827;50.534;8.316;2023-05-10T03:51:28;12.10;99.90
3626;DHT22;1827;50.534;8.316;2023-05-10T03:53:54;12.10;99.90
3626;DHT22;1827;50.534;8.316;2023-05-10T03:56:21;12.10;99.90
3626;DHT22;1827;50.534;8.316;2023-05-10T03:58:50;12.10;99.90
3626;DHT22;1827;50.534;8.316;2023-05-10T04:01:16;12.10;99.90
3626;DHT22;1827;50.534;8.316;2023-05-10T04:03:45;12.10;99.90
3626;DHT22;1827;50.534;8.316;2023-05-10T04:06:11;12.10;99.90
3626;DHT22;1827;50.534;8.316;2023-05-10T04:08:37;12.10;99.90
3626;DHT22;1827;50.534;8.316;2023-05-10T04:11:07;12.10;99.90
3626;DHT22;1827;50.534;8.316;2023-05-10T04:13:33;12.10;99.90
3626;DHT22;1827;50.534;8.316;2023-05-10T04:15:58;12.10;99.90
3626;DHT22;1827;50.534;8.316;2023-05-10T04:18:25;12.10;99.90
3626;DHT22;1827;50.534;8.316;2023-05-10T04:20:50;12.10;99.90
3626;DHT22;1827;50.534;8.316;2023-05-10T04:23:16;12.10;99.90
3626;DHT22;1827;50.534;8.316;2023-05-10T04:25:42;12.10;99.90
3626;DHT22;1827;50.534;8.316;2023-05-10T04:28:08;12.10;1.00
3626;DHT22;1827;50.534;8.316;2023-05-10T04:30:34;12.20;1.00
3626;DHT22;1827;50.534;8.316;2023-05-10T04:33:00;12.30;1.00
3626;DHT22;1827;50.534;8.316;2023-05-10T04:35:27;12.30;1.00
3626;DHT22;1827;50.534;8.316;2023-05-10T04:37:53;12.20;1.00
3626;DHT22;1827;50.534;8.316;2023-05-10T04:40:19;12.20;99.90
3626;DHT22;1827;50.534;8.316;2023-05-10T04:42:45;12.20;99.90
3626;DHT22;1827;50.534;8.316;2023-05-10T04:45:10;12.30;99.90
3626;DHT22;1827;50.534;8.316;2023-05-10T04:47:36;12.30;99.90
3626;DHT22;1827;50.534;8.316;2023-05-10T04:50:02;12.30;99.90
3626;DHT22;1827;50.534;8.316;2023-05-10T04:52:28;12.30;99.90
3626;DHT22;1827;50.534;8.316;2023-05-10T04:54:54;12.30;99.90
3626;DHT22;1827;50.534;8.316;2023-05-10T04:57:19;12.30;35.20
3626;DHT22;1827;50.534;8.316;2023-05-10T04:59:45;12.40;1.00
3626;DHT22;1827;50.534;8.316;2023-05-10T05:02:12;12.40;1.00
3626;DHT22;1827;50.534;8.316;2023-05-10T05:04:37;12.40;1.00
3626;DHT22;1827;50.534;8.316;2023-05-10T05:07:03;12.50;1.00
3626;DHT22;1827;50.534;8.316;2023-05-10T05:09:29;12.60;1.00
3626;DHT22;1827;50.534;8.316;2023-05-10T05:11:55;12.60;99.90
3626;DHT22;1827;50.534;8.316;2023-05-10T05:14:20;12.60;99.90
3626;DHT22;1827;50.534;8.316;2023-05-10T05:16:46;12.60;99.90
3626;DHT22;1827;50.534;8.316;2023-05-10T05:19:11;12.60;99.90
3626;DHT22;1827;50.534;8.316;2023-05-10T05:21:37;12.60;77.70
3626;DHT22;1827;50.534;8.316;2023-05-10T05:24:03;12.60;1.00
3626;DHT22;1827;50.534;8.316;2023-05-10T05:26:29;12.60;1.00
3626;DHT22;1827;50.534;8.316;2023-05-10T05:28:55;12.60;1.00
3626;DHT22;1827;50.534;8.316;2023-05-10T05:31:20;12.60;1.00
3626;DHT22;1827;50.534;8.316;2023-05-10T05:33:46;12.70;1.00
3626;DHT22;1827;50.534;8.316;2023-05-10T05:36:11;12.70;99.90
3626;DHT22;1827;50.534;8.316;2023-05-10T05:38:37;12.60;99.90
3626;DHT22;1827;50.534;8.316;2023-05-10T05:41:02;12.60;99.90
3626;DHT22;1827;50.534;8.316;2023-05-10T05:43:28;12.60;40.60
3626;DHT22;1827;50.534;8.316;2023-05-10T05:45:54;12.70;1.00
3626;DHT22;1827;50.534;8.316;2023-05-10T05:48:20;12.70;1.00
3626;DHT22;1827;50.534;8.316;2023-05-10T05:50:45;12.90;1.00
3626;DHT22;1827;50.534;8.316;2023-05-10T05:53:11;12.80;1.00
3626;DHT22;1827;50.534;8.316;2023-05-10T05:55:37;12.90;1.00
3626;DHT22;1827;50.534;8.316;2023-05-10T05:58:02;12.90;1.00
3626;DHT22;1827;50.534;8.316;2023-05-10T06:00:28;12.90;1.00
3626;DHT22;1827;50.534;8.316;2023-05-10T06:02:54;12.90;1.00
3626;DHT22;1827;50.534;8.316;2023-05-10T06:05:19;12.90;99.90
3626;DHT22;1827;50.534;8.316;2023-05-10T06:07:46;12.90;99.90
3626;DHT22;1827;50.534;8.316;2023-05-10T06:10:11;13.10;99.90
3626;DHT22;1827;50.534;8.316;2023-05-10T06:12:37;13.20;99.90
3626;DHT22;1827;50.534;8.316;2023-05-10T06:15:03;13.30;99.90
3626;DHT22;1827;50.534;8.316;2023-05-10T06:17:29;13.30;99.90
3626;DHT22;1827;50.534;8.316;2023-05-10T06:19:54;13.40;99.90
3626;DHT22;1827;50.534;8.316;2023-05-10T06:22:20;13.50;35.50
3626;DHT22;1827;50.534;8.316;2023-05-10T06:24:48;13.50;1.00
3626;DHT22;1827;50.534;8.316;2023-05-10T06:27:14;13.60;1.00
3626;DHT22;1827;50.534;8.316;2023-05-10T06:29:39;13.70;1.00
3626;DHT22;1827;50.534;8.316;2023-05-10T06:32:05;13.70;1.00
3626;DHT22;1827;50.534;8.316;2023-05-10T06:34:30;13.50;1.00
3626;DHT22;1827;50.534;8.316;2023-05-10T06:36:56;13.50;99.90
3626;DHT22;1827;50.534;8.316;2023-05-10T06:39:22;13.50;99.90
3626;DHT22;1827;50.534;8.316;2023-05-10T06:41:50;13.60;99.90
3626;DHT22;1827;50.534;8.316;2023-05-10T06:44:18;13.70;99.90
3626;DHT22;1827;50.534;8.316;2023-05-10T06:46:43;13.90;99.90
3626;DHT22;1827;50.534;8.316;2023-05-10T06:49:09;14.00;99.90
3626;DHT22;1827;50.534;8.316;2023-05-10T06:51:34;14.20;99.90
3626;DHT22;1827;50.534;8.316;2023-05-10T06:54:00;14.30;99.90
3626;DHT22;1827;50.534;8.316;2023-05-10T06:56:26;14.50;1.00
3626;DHT22;1827;50.534;8.316;2023-05-10T06:58:52;14.60;1.00
3626;DHT22;1827;50.534;8.316;2023-05-10T07:01:17;14.60;1.00
3626;DHT22;1827;50.534;8.316;2023-05-10T07:03:43;14.60;1.00
3626;DHT22;1827;50.534;8.316;2023-05-10T07:06:09;14.50;1.00
3626;DHT22;1827;50.534;8.316;2023-05-10T07:08:34;14.30;99.90
3626;DHT22;1827;50.534;8.316;2023-05-10T07:11:01;14.30;99.90
3626;DHT22;1827;50.534;8.316;2023-05-10T07:13:26;14.20;99.90
3626;DHT22;1827;50.534;8.316;2023-05-10T07:15:52;14.20;99.90
3626;DHT22;1827;50.534;8.316;2023-05-10T07:18:17;14.40;99.90
3626;DHT22;1827;50.534;8.316;2023-05-10T07:20:43;14.50;99.60
3626;DHT22;1827;50.534;8.316;2023-05-10T07:23:14;14.40;1.00
3626;DHT22;1827;50.534;8.316;2023-05-10T07:25:40;14.40;1.00
3626;DHT22;1827;50.534;8.316;2023-05-10T07:28:06;14.70;1.00
3626;DHT22;1827;50.534;8.316;2023-05-10T07:30:31;14.80;1.00
3626;DHT22;1827;50.534;8.316;2023-05-10T07:32:57;15.00;1.00
3626;DHT22;1827;50.534;8.316;2023-05-10T07:35:25;15.20;1.00
3626;DHT22;1827;50.534;8.316;2023-05-10T07:37:51;15.30;1.00
3626;DHT22;1827;50.534;8.316;2023-05-10T07:40:16;15.20;1.00
3626;DHT22;1827;50.534;8.316;2023-05-10T07:42:42;15.20;1.00
3626;DHT22;1827;50.534;8.316;2023-05-10T07:45:08;15.20;99.90
3626;DHT22;1827;50.534;8.316;2023-05-10T07:47:33;15.00;99.90
3626;DHT22;1827;50.534;8.316;2023-05-10T07:49:59;14.80;99.90
3626;DHT22;1827;50.534;8.316;2023-05-10T07:52:25;14.90;99.90
3626;DHT22;1827;50.534;8.316;2023-05-10T07:54:50;14.90;99.90
3626;DHT22;1827;50.534;8.316;2023-05-10T07:57:17;15.00;99.90
3626;DHT22;1827;50.534;8.316;2023-05-10T07:59:46;15.20;99.90
3626;DHT22;1827;50.534;8.316;2023-05-10T08:02:12;15.20;99.90
3626;DHT22;1827;50.534;8.316;2023-05-10T08:04:37;15.20;99.90
3626;DHT22;1827;50.534;8.316;2023-05-10T08:07:03;15.20;99.90
3626;DHT22;1827;50.534;8.316;2023-05-10T08:09:28;15.40;99.90
3626;DHT22;1827;50.534;8.316;2023-05-10T08:11:54;15.10;99.90
3626;DHT22;1827;50.534;8.316;2023-05-10T08:14:20;14.80;99.90
3626;DHT22;1827;50.534;8.316;2023-05-10T08:16:46;14.30;99.90
3626;DHT22;1827;50.534;8.316;2023-05-10T08:19:13;14.10;99.90
3626;DHT22;1827;50.534;8.316;2023-05-10T08:21:38;13.90;1.00
3626;DHT22;1827;50.534;8.316;2023-05-10T08:24:07;13.80;1.00
3626;DHT22;1827;50.534;8.316;2023-05-10T08:26:33;13.80;1.00
3626;DHT22;1827;50.534;8.316;2023-05-10T08:28:58;13.60;1.00
3626;DHT22;1827;50.534;8.316;2023-05-10T08:31:24;13.80;1.00
3626;DHT22;1827;50.534;8.316;2023-05-10T08:33:49;14.00;1.00
3626;DHT22;1827;50.534;8.316;2023-05-10T08:36:16;14.10;1.00
3626;DHT22;1827;50.534;8.316;2023-05-10T08:38:50;14.00;1.00
3626;DHT22;1827;50.534;8.316;2023-05-10T08:41:17;14.10;1.00
3626;DHT22;1827;50.534;8.316;2023-05-10T08:43:43;14.30;1.00
3626;DHT22;1827;50.534;8.316;2023-05-10T08:46:11;14.60;1.00
3626;DHT22;1827;50.534;8.316;2023-05-10T08:48:38;14.80;1.00
3626;DHT22;1827;50.534;8.316;2023-05-10T08:51:04;14.80;1.00
3626;DHT22;1827;50.534;8.316;2023-05-10T08:53:30;14.70;1.00
3626;DHT22;1827;50.534;8.316;2023-05-10T08:55:57;14.80;1.00
3626;DHT22;1827;50.534;8.316;2023-05-10T08:58:25;14.90;1.00
3626;DHT22;1827;50.534;8.316;2023-05-10T09:00:52;15.00;1.00
3626;DHT22;1827;50.534;8.316;2023-05-10T09:03:17;14.70;1.00
3626;DHT22;1827;50.534;8.316;2023-05-10T09:05:43;14.50;1.00
3626;DHT22;1827;50.534;8.316;2023-05-10T09:08:10;14.20;1.00
3626;DHT22;1827;50.534;8.316;2023-05-10T09:10:38;13.70;1.00
3626;DHT22;1827;50.534;8.316;2023-05-10T09:13:04;13.90;1.00
3626;DHT22;1827;50.534;8.316;2023-05-10T09:15:30;14.00;13.30
3626;DHT22;1827;50.534;8.316;2023-05-10T09:17:56;14.20;99.90
3626;DHT22;1827;50.534;8.316;2023-05-10T09:20:23;14.50;99.90
3626;DHT22;1827;50.534;8.316;2023-05-10T09:22:49;14.70;99.90
3626;DHT22;1827;50.534;8.316;2023-05-10T09:25:15;14.80;99.90
3626;DHT22;1827;50.534;8.316;2023-05-10T09:27:41;14.90;99.90
3626;DHT22;1827;50.534;8.316;2023-05-10T09:30:09;15.00;16.40
3626;DHT22;1827;50.534;8.316;2023-05-10T09:32:39;15.20;4.90
3626;DHT22;1827;50.534;8.316;2023-05-10T09:35:09;15.40;1.00
3626;DHT22;1827;50.534;8.316;2023-05-10T09:37:36;15.70;1.00
3626;DHT22;1827;50.534;8.316;2023-05-10T09:40:04;15.90;1.00
3626;DHT22;1827;50.534;8.316;2023-05-10T09:42:30;16.10;1.00
3626;DHT22;1827;50.534;8.316;2023-05-10T09:44:59;16.00;1.00
3626;DHT22;1827;50.534;8.316;2023-05-10T09:47:28;15.90;1.00
3626;DHT22;1827;50.534;8.316;2023-05-10T09:49:54;15.70;1.00
3626;DHT22;1827;50.534;8.316;2023-05-10T09:52:23;15.80;99.90
3626;DHT22;1827;50.534;8.316;2023-05-10T09:54:52;15.80;99.90
3626;DHT22;1827;50.534;8.316;2023-05-10T09:57:18;15.80;99.90
3626;DHT22;1827;50.534;8.316;2023-05-10T09:59:44;15.80;99.90
3626;DHT22;1827;50.534;8.316;2023-05-10T10:02:09;16.40;99.90
3626;DHT22;1827;50.534;8.316;2023-05-10T10:04:38;17.10;99.90
3626;DHT22;1827;50.534;8.316;2023-05-10T10:07:04;16.80;99.90
3626;DHT22;1827;50.534;8.316;2023-05-10T10:09:30;16.70;99.90
3626;DHT22;1827;50.534;8.316;2023-05-10T10:11:56;16.40;65.30
3626;DHT22;1827;50.534;8.316;2023-05-10T10:14:22;16.30;1.00
3626;DHT22;1827;50.534;8.316;2023-05-10T10:16:48;16.10;1.00
3626;DHT22;1827;50.534;8.316;2023-05-10T10:19:14;15.80;1.00
3626;DHT22;1827;50.534;8.316;2023-05-10T10:21:40;15.60;1.00
3626;DHT22;1827;50.534;8.316;2023-05-10T10:24:06;15.20;1.00
3626;DHT22;1827;50.534;8.316;2023-05-10T10:26:35;15.00;53.70
3626;DHT22;1827;50.534;8.316;2023-05-10T10:33:59;14.80;99.30
3626;DHT22;1827;50.534;8.316;2023-05-10T10:36:25;14.90;99.90
3626;DHT22;1827;50.534;8.316;2023-05-10T10:38:56;15.00;99.90
3626;DHT22;1827;50.534;8.316;2023-05-10T10:41:29;15.20;99.90
3626;DHT22;1827;50.534;8.316;2023-05-10T10:49:26;16.10;98.80
3626;DHT22;1827;50.534;8.316;2023-05-10T10:54:36;16.60;1.00
3626;DHT22;1827;50.534;8.316;2023-05-10T10:57:20;16.70;1.00
3626;DHT22;1827;50.534;8.316;2023-05-10T10:59:49;16.70;1.00
3626;DHT22;1827;50.534;8.316;2023-05-10T11:02:34;16.40;1.00
3626;DHT22;1827;50.534;8.316;2023-05-10T11:05:22;16.50;1.00
3626;DHT22;1827;50.534;8.316;2023-05-10T11:07:56;16.80;1.00
3626;DHT22;1827;50.534;8.316;2023-05-10T11:10:28;17.00;1.00
3626;DHT22;1827;50.534;8.316;2023-05-10T11:13:04;16.90;1.00
3626;DHT22;1827;50.534;8.316;2023-05-10T11:15:31;16.40;1.00
3626;DHT22;1827;50.534;8.316;2023-05-10T11:17:57;15.80;1.00
3626;DHT22;1827;50.534;8.316;2023-05-10T11:20:23;15.50;1.00
3626;DHT22;1827;50.534;8.316;2023-05-10T11:23:11;15.10;1.00
3626;DHT22;1827;50.534;8.316;2023-05-10T11:25:41;14.90;1.00
3626;DHT22;1827;50.534;8.316;2023-05-10T11:28:07;15.00;1.00
3626;DHT22;1827;50.534;8.316;2023-05-10T11:30:33;14.90;1.00
3626;DHT22;1827;50.534;8.316;2023-05-10T11:32:58;14.80;1.00
3626;DHT22;1827;50.534;8.316;2023-05-10T11:35:27;14.90;1.00
3626;DHT22;1827;50.534;8.316;2023-05-10T11:37:53;15.10;1.00
3626;DHT22;1827;50.534;8.316;2023-05-10T11:40:18;15.40;8.40
3626;DHT22;1827;50.534;8.316;2023-05-10T11:42:44;15.80;48.20
3626;DHT22;1827;50.534;8.316;2023-05-10T11:45:10;16.30;72.90
3626;DHT22;1827;50.534;8.316;2023-05-10T11:47:36;16.60;6.40
3626;DHT22;1827;50.534;8.316;2023-05-10T11:50:02;17.20;1.00
3626;DHT22;1827;50.534;8.316;2023-05-10T11:52:28;17.30;1.00
3626;DHT22;1827;50.534;8.316;2023-05-10T11:54:54;17.60;1.00
3626;DHT22;1827;50.534;8.316;2023-05-10T11:57:20;17.90;1.00
3626;DHT22;1827;50.534;8.316;2023-05-10T11:59:46;17.80;1.00
3626;DHT22;1827;50.534;8.316;2023-05-10T12:02:13;17.80;1.00
3626;DHT22;1827;50.534;8.316;2023-05-10T12:04:38;18.30;1.00
3626;DHT22;1827;50.534;8.316;2023-05-10T12:07:04;18.20;1.00
3626;DHT22;1827;50.534;8.316;2023-05-10T12:09:31;18.10;1.00
3626;DHT22;1827;50.534;8.316;2023-05-10T12:11:56;18.50;1.00
3626;DHT22;1827;50.534;8.316;2023-05-10T12:14:22;18.40;1.00
3626;DHT22;1827;50.534;8.316;2023-05-10T12:16:48;18.10;1.00
3626;DHT22;1827;50.534;8.316;2023-05-10T12:19:13;18.40;1.00
3626;DHT22;1827;50.534;8.316;2023-05-10T12:21:43;18.70;1.00
3626;DHT22;1827;50.534;8.316;2023-05-10T12:24:09;19.10;1.00
3626;DHT22;1827;50.534;8.316;2023-05-10T12:26:36;19.00;1.00
3626;DHT22;1827;50.534;8.316;2023-05-10T12:29:11;18.60;1.00
3626;DHT22;1827;50.534;8.316;2023-05-10T12:31:55;18.60;1.00
3626;DHT22;1827;50.534;8.316;2023-05-10T12:34:23;18.20;1.00
3626;DHT22;1827;50.534;8.316;2023-05-10T12:36:52;18.30;1.00
3626;DHT22;1827;50.534;8.316;2023-05-10T12:39:19;18.30;1.00
3626;DHT22;1827;50.534;8.316;2023-05-10T12:41:45;18.00;1.00
3626;DHT22;1827;50.534;8.316;2023-05-10T12:44:10;17.80;1.00
3626;DHT22;1827;50.534;8.316;2023-05-10T12:46:36;17.50;1.00
3626;DHT22;1827;50.534;8.316;2023-05-10T12:49:04;17.40;1.00
3626;DHT22;1827;50.534;8.316;2023-05-10T12:51:30;17.20;1.00
3626;DHT22;1827;50.534;8.316;2023-05-10T12:53:56;16.90;1.00
3626;DHT22;1827;50.534;8.316;2023-05-10T12:56:22;16.70;1.00
3626;DHT22;1827;50.534;8.316;2023-05-10T12:58:47;16.40;1.00
3626;DHT22;1827;50.534;8.316;2023-05-10T13:01:14;16.50;1.00
3626;DHT22;1827;50.534;8.316;2023-05-10T13:03:39;16.60;1.00
3626;DHT22;1827;50.534;8.316;2023-05-10T13:06:05;16.70;1.00
3626;DHT22;1827;50.534;8.316;2023-05-10T13:08:31;16.70;1.00
3626;DHT22;1827;50.534;8.316;2023-05-10T13:10:59;16.90;1.00
3626;DHT22;1827;50.534;8.316;2023-05-10T13:13:25;17.30;1.00
3626;DHT22;1827;50.534;8.316;2023-05-10T13:15:51;17.60;1.00
3626;DHT22;1827;50.534;8.316;2023-05-10T13:18:17;17.80;1.00
3626;DHT22;1827;50.534;8.316;2023-05-10T13:20:43;17.40;1.00
3626;DHT22;1827;50.534;8.316;2023-05-10T13:23:09;18.10;1.00
3626;DHT22;1827;50.534;8.316;2023-05-10T13:25:35;18.60;1.00
3626;DHT22;1827;50.534;8.316;2023-05-10T13:28:01;18.90;1.00
3626;DHT22;1827;50.534;8.316;2023-05-10T13:30:27;18.70;1.00
3626;DHT22;1827;50.534;8.316;2023-05-10T13:32:52;18.70;1.00
3626;DHT22;1827;50.534;8.316;2023-05-10T13:35:18;18.90;1.00
3626;DHT22;1827;50.534;8.316;2023-05-10T13:37:44;18.90;1.00
3626;DHT22;1827;50.534;8.316;2023-05-10T13:40:10;18.90;1.00
3626;DHT22;1827;50.534;8.316;2023-05-10T13:42:35;19.20;1.00
3626;DHT22;1827;50.534;8.316;2023-05-10T13:45:01;19.30;1.00
3626;DHT22;1827;50.534;8.316;2023-05-10T13:47:27;19.20;1.00
3626;DHT22;1827;50.534;8.316;2023-05-10T13:49:52;18.80;1.00
3626;DHT22;1827;50.534;8.316;2023-05-10T13:52:18;19.10;1.00
3626;DHT22;1827;50.534;8.316;2023-05-10T13:54:44;18.80;1.00
3626;DHT22;1827;50.534;8.316;2023-05-10T13:57:10;19.20;1.00
3626;DHT22;1827;50.534;8.316;2023-05-10T13:59:38;19.50;1.00
3626;DHT22;1827;50.534;8.316;2023-05-10T14:02:03;19.50;1.00
3626;DHT22;1827;50.534;8.316;2023-05-10T14:04:29;19.30;1.00
3626;DHT22;1827;50.534;8.316;2023-05-10T14:06:54;18.90;1.00
3626;DHT22;1827;50.534;8.316;2023-05-10T14:09:20;18.90;1.00
3626;DHT22;1827;50.534;8.316;2023-05-10T14:11:46;18.80;1.00
3626;DHT22;1827;50.534;8.316;2023-05-10T14:14:12;18.40;1.00
3626;DHT22;1827;50.534;8.316;2023-05-10T14:16:42;17.60;1.00
3626;DHT22;1827;50.534;8.316;2023-05-10T14:19:08;17.20;1.00
3626;DHT22;1827;50.534;8.316;2023-05-10T14:21:33;16.70;1.00
3626;DHT22;1827;50.534;8.316;2023-05-10T14:23:59;16.50;1.00
3626;DHT22;1827;50.534;8.316;2023-05-10T14:26:25;16.30;1.00
3626;DHT22;1827;50.534;8.316;2023-05-10T14:28:51;16.10;1.00
3626;DHT22;1827;50.534;8.316;2023-05-10T14:31:17;15.70;1.00
3626;DHT22;1827;50.534;8.316;2023-05-10T14:33:46;15.70;1.00
3626;DHT22;1827;50.534;8.316;2023-05-10T14:36:11;15.90;1.00
3626;DHT22;1827;50.534;8.316;2023-05-10T14:38:37;15.80;1.00
3626;DHT22;1827;50.534;8.316;2023-05-10T14:41:02;15.80;1.00
3626;DHT22;1827;50.534;8.316;2023-05-10T14:43:28;15.70;1.00
3626;DHT22;1827;50.534;8.316;2023-05-10T14:45:53;16.00;1.00
3626;DHT22;1827;50.534;8.316;2023-05-10T14:48:19;16.10;1.00
3626;DHT22;1827;50.534;8.316;2023-05-10T14:50:46;16.20;1.00
3626;DHT22;1827;50.534;8.316;2023-05-10T14:53:12;16.10;1.00
3626;DHT22;1827;50.534;8.316;2023-05-10T14:55:37;16.00;1.00
3626;DHT22;1827;50.534;8.316;2023-05-10T14:58:04;16.30;1.00
3626;DHT22;1827;50.534;8.316;2023-05-10T15:00:30;16.40;1.00
3626;DHT22;1827;50.534;8.316;2023-05-10T15:02:55;16.70;1.00
3626;DHT22;1827;50.534;8.316;2023-05-10T15:05:21;17.00;1.00
3626;DHT22;1827;50.534;8.316;2023-05-10T15:07:47;16.80;1.00
3626;DHT22;1827;50.534;8.316;2023-05-10T15:10:12;16.60;1.00
3626;DHT22;1827;50.534;8.316;2023-05-10T15:12:39;16.70;1.00
3626;DHT22;1827;50.534;8.316;2023-05-10T15:15:06;17.10;1.00
3626;DHT22;1827;50.534;8.316;2023-05-10T15:17:31;17.10;1.00
3626;DHT22;1827;50.534;8.316;2023-05-10T15:19:57;17.30;1.00
3626;DHT22;1827;50.534;8.316;2023-05-10T15:22:23;17.40;1.00
3626;DHT22;1827;50.534;8.316;2023-05-10T15:24:49;17.70;1.00
3626;DHT22;1827;50.534;8.316;2023-05-10T15:27:14;17.90;1.00
3626;DHT22;1827;50.534;8.316;2023-05-10T15:29:40;18.10;1.00
3626;DHT22;1827;50.534;8.316;2023-05-10T15:32:05;17.90;1.00
3626;DHT22;1827;50.534;8.316;2023-05-10T15:34:31;17.90;1.00
3626;DHT22;1827;50.534;8.316;2023-05-10T15:36:57;17.90;1.00
3626;DHT22;1827;50.534;8.316;2023-05-10T15:39:22;18.10;1.00
3626;DHT22;1827;50.534;8.316;2023-05-10T15:41:48;18.00;1.00
3626;DHT22;1827;50.534;8.316;2023-05-10T15:44:14;17.90;1.00
3626;DHT22;1827;50.534;8.316;2023-05-10T15:46:39;17.90;1.00
3626;DHT22;1827;50.534;8.316;2023-05-10T15:49:05;17.60;1.00
3626;DHT22;1827;50.534;8.316;2023-05-10T15:51:31;17.60;1.00
3626;DHT22;1827;50.534;8.316;2023-05-10T15:53:58;17.60;1.00
3626;DHT22;1827;50.534;8.316;2023-05-10T15:56:23;17.60;1.00
3626;DHT22;1827;50.534;8.316;2023-05-10T15:58:49;17.50;1.00
3626;DHT22;1827;50.534;8.316;2023-05-10T16:01:14;17.50;1.00
3626;DHT22;1827;50.534;8.316;2023-05-10T16:03:40;17.40;1.00
3626;DHT22;1827;50.534;8.316;2023-05-10T16:06:07;17.50;1.00
3626;DHT22;1827;50.534;8.316;2023-05-10T16:08:32;17.60;1.00
3626;DHT22;1827;50.534;8.316;2023-05-10T16:10:58;17.50;1.00
3626;DHT22;1827;50.534;8.316;2023-05-10T16:13:24;17.50;1.00
3626;DHT22;1827;50.534;8.316;2023-05-10T16:15:50;17.50;1.00
3626;DHT22;1827;50.534;8.316;2023-05-10T16:18:16;17.30;1.00
3626;DHT22;1827;50.534;8.316;2023-05-10T16:20:42;17.20;1.00
3626;DHT22;1827;50.534;8.316;2023-05-10T16:23:08;17.30;1.00
3626;DHT22;1827;50.534;8.316;2023-05-10T16:25:34;17.20;1.00
3626;DHT22;1827;50.534;8.316;2023-05-10T16:28:00;17.20;1.00
3626;DHT22;1827;50.534;8.316;2023-05-10T16:30:25;17.20;1.00
3626;DHT22;1827;50.534;8.316;2023-05-10T16:32:58;17.40;1.00
3626;DHT22;1827;50.534;8.316;2023-05-10T16:35:26;17.30;1.00
3626;DHT22;1827;50.534;8.316;2023-05-10T16:37:52;17.20;1.00